METAR

4 Jan

LOWW 041420Z 16026G38KT 6000 FEW009 BKN011 M04/M06 Q1023 8819//95 NOSIG
LOWS 041420Z 33005KT CAVOK M00/M05 Q1013 WS ALL RWY NOSIG
LOWG 041420Z 16003KT 4500 FZBR BKN007 OVC010 M03/M04 Q1024 1732//58 NOSIG
LOWL 041420Z 11010KT 070V130 CAVOK 00/M03 Q1016 NOSIG
LOWK 041420Z 10003KT 9999 FEW050 BKN300 M00/M06 Q1022 1019//95 NOSIG
LOWI 041420Z 15014G26KT 080V200 9999 FEW060 BKN250 09/M01 Q1015 WS ALL RWY NOSIG
LOXA 041350Z 17002KT 40KM FEW130AC BKN280CI M00/M05 Q1016 BKN
LOIH 041400Z 02004KT 35KM FEW060SC BKN120AC 02/M01 Q1010 BKN
LOAG 041400Z 09008G20KT 3000 BR OVC015ST OVC
LOAV 041400Z 15019G30KT 2000 FZBR SCT007SC M03/M04 Q1022 BKN
LOAN 041400Z 15016KT 10KM FEW020ST FEW
LOLF 041400Z 29004KT 9999 BKN070AC BKN
LOXT 041350Z 09018G31KT 050V120 6000 SCT010ST BKN014SC M03/M05 Q1021 BKN
LOWZ 041400Z 13003KT 30KM BKN100AC M04/M09 Q1013 BKN
LOXZ 041350Z VRB02KT 15KM FEW045SC SCT130AC BKN280CI M01/M05 Q1019 BKN

Advertisements

Kommentar verfassen

Trage deine Daten unten ein oder klicke ein Icon um dich einzuloggen:

WordPress.com-Logo

Du kommentierst mit Deinem WordPress.com-Konto. Abmelden / Ändern )

Twitter-Bild

Du kommentierst mit Deinem Twitter-Konto. Abmelden / Ändern )

Facebook-Foto

Du kommentierst mit Deinem Facebook-Konto. Abmelden / Ändern )

Google+ Foto

Du kommentierst mit Deinem Google+-Konto. Abmelden / Ändern )

Verbinde mit %s

%d Bloggern gefällt das: